Hall Summit, LA (71034)

12:57 PM CDT on July 29, 2016 (GMT -0500)
Creston | | Change Station

Elev 157 ft 31.99 °N, 93.07 °W | Updated 12 minutes ago

Partly Cloudy
Partly Cloudy
86.4 °F
Feels Like 98 °F
N
13.0
Wind Variable Wind from West
Gusts 16.0 mph

Today
High -- | Low -- °F
--% Chance of Precip.
Yesterday
High -- | Low -- °F
Precip. -- in
Pressure 30.04 in
Visibility 10.0 miles
Clouds Few 2600 ft
Heat Index 98 °F
Dew Point 78 °F
Humidity 75%
Rainfall 0.00 in
Snow Depth Not available.
6:26 AM 8:12 PM
Waning Crescent, 20% visible
METAR KBAD 291658Z 25012KT 10SM FEW026 31/23 A3003 RMK AO2A SLP170 P0000 T03110233
Pressure 30.04 in
Visibility 10.0 miles
Clouds Few 2600 ft
Heat Index 98 °F
Dew Point 78 °F
Humidity 75%
Rainfall 0.00 in
Snow Depth Not available.
6:26 AM 8:12 PM
Waning Crescent, 20% visible
METAR KBAD 291658Z 25012KT 10SM FEW026 31/23 A3003 RMK AO2A SLP170 P0000 T03110233

10-Day Weather Forecast

Almanac

Astronomy

Jul. 29, 2016 Rise Set
Actual Time
Civil Twilight
Nautical Twilight
Astronomical Twilight
Moon
Length of Visible Light
Length of Day
Tomorrow will be .
, % of the Moon is Illuminated

Today's Extremes

State Highs State Lows

Community

WunderPhotos

Upload Photos

1,928,382 photos uploaded!

WunderBlog® & News

Nearby

Air Quality

  Air Quality AQ Index Pollutant
Not available.

Snow Depth

Station Depth Elevation

Earthquake Activity

City Distance Mag. Time & Date
Minimum magnitude displayed is 2.5.

Coastal Water Temperatures

Place Temperature

Stations

Nearby Weather Stations

Station Location Temp. Windchill Dew Point Humidity Wind Precip. Elev Updated Type
                   

Watches & Warnings

There are currently no watches in effect.